Fowlkes, Tennessee
Current Conditions -  °F | °C
As of 6:15 AM on Friday 28 Nov 2014 (Local Time) from KDYR Reporting Station
Clear Clear  
Wind Chill: 27°   Ceiling: Unl
Heat Index: 27°   Visibility: 10mi
Dew Point: 12°   Wind: 3mph
Humidity: 55%   Direction: 140°SE
Pressure: 30.43"   Gusts: NA
Location:  35.97°N, 89.39°W
Report Text: KDYR 281215Z 14003KT 10SM CLR M03/M11 A3043 RMK AO1
Loading
Personal Weather Stations






























Interactive Weather Map New forecast layout! Learn more

10-Day Weather Forecast

Advertisements
Track Severe Weather on mobile